Terminal Aerodrome Forecast
Issued by NWS Huntsville, AL

Home | Current Version | Previous Version | Text Only | Print | Product List | Glossary On
Versions: 1 2 3 4 5 6 7 8 9 10 11 12 13 14 15 16 17 18 19 20 21 22 23 24 25 26 27 28 29 30 31
000
FTUS44 KHUN 181627 AAB
TAFMSL
TAF AMD
KMSL 181627Z 1816/1912 VRB03KT 6SM -SHRA BR BKN025 OVC100
      TEMPO 1816/1818 BKN008
     FM181800 18007KT 6SM -SHRA BR OVC025
      TEMPO 1818/1822 VRB15KT 3SM TSRA OVC015CB
     FM190100 VRB04KT P6SM SCT040 BKN120=

USA.gov is the U.S. government's official web portal to all federal, state and local government web resources and services.